Station APNM4 - Alpena Harbor Light, Alpena, MI Image indicating link to RSS feed of recent meteorological observations for station APNM4


Conditions at APNM4 as of
(8:10 pm EDT on 06/13/2024)
0010 GMT on 06/14/2024:
     

Click on the graph icon in the table below to see a time series plot of the last five days of that observation.

5-day plot - Wind Direction Wind Direction (WDIR):WNW ( 300 deg true )
5-day plot - Wind Speed Wind Speed (WSPD): 9 kts
5-day plot - Wind Gust Wind Gust (GST): 12 kts
5-day plot - Air Temperature Air Temperature (ATMP): 72.3 °F
5-day plot -  Wind Speed, Wind Gust and Atmospheric Pressure Combined plot of Wind Speed, Gust, and Air Pressure
Previous observations
TIME
(EDT)
5-day plot - Wind Direction
WDIR
 
5-day plot - Wind Speed
WSPD
kts
5-day plot - Wind Gust
GST
kts
5-day plot - Wave Height
WVHT
ft
5-day plot - Dominant Wave Period
DPD
sec
5-day plot - Average Wave Period
APD
sec
5-day plot - Mean Wave Direction
MWD
 
5-day plot - Atmospheric Pressure
PRES
in
5-day plot - Pressure Tendency
PTDY
in
5-day plot - Air Temperature
ATMP
°F
5-day plot - Water Temperature
WTMP
°F
5-day plot - Dew Point
DEWP
°F
5-day plot - Salinity
SAL
psu
5-day plot - Visibility
VIS
nmi
5-day plot - Tide (above MLLW)
TIDE
ft
2024-06-13 08:00 pm NW 10 13------ 72.5-----
2024-06-13 07:50 pm NW 8 10------ 72.3-----
2024-06-13 07:40 pmWNW 11 16------ 72.5-----
2024-06-13 07:30 pm NW 9 10------ 72.3-----
2024-06-13 07:20 pm NW 6 10------ 72.0-----
2024-06-13 07:10 pm NW 13 15------------
2024-06-13 07:00 pm NW 12 14------------
2024-06-13 06:50 pm NW 11 14------------
2024-06-13 06:40 pm NW 14 21------------
2024-06-13 06:30 pm NW 23 30------------
2024-06-13 06:20 pmWNW 16 21------ 81.3-----
2024-06-13 06:10 pmWNW 14 20------ 81.7-----
2024-06-13 06:00 pm W 17 22------ 81.9-----
2024-06-13 05:50 pm W 11 15------ 82.0-----
2024-06-13 05:40 pm W 12 16------ 82.0-----
2024-06-13 05:30 pm W 17 25------ 82.2-----
2024-06-13 05:20 pmWNW 16 22------ 82.2-----
2024-06-13 05:10 pm W 16 21------ 82.0-----
2024-06-13 05:00 pm W 13 18------ 81.9-----
2024-06-13 04:50 pmWNW 22 26------ 81.9-----
2024-06-13 04:40 pm W 15 21------ 81.5-----
2024-06-13 04:30 pmWNW 14 18------ 81.5-----
2024-06-13 04:20 pm W 12 17------ 81.5-----
2024-06-13 04:10 pm W 14 19------ 80.6-----
2024-06-13 04:00 pm W 13 16------ 76.8-----
2024-06-13 12:00 pm W 13 16------ 82.0-----
2024-06-13 11:50 amWSW 13 15------ 81.3-----
2024-06-13 11:40 amWSW 18 20------ 80.2-----
2024-06-13 11:30 am SW 7 8------ 79.5-----
2024-06-13 11:20 amWSW 9 11------ 79.5-----
2024-06-13 11:10 amWSW 14 17------ 78.8-----
2024-06-13 11:00 amWSW 11 14------ 78.1-----
2024-06-13 10:50 am SW 13 14------ 77.4-----
2024-06-13 10:40 amWSW 6 8------ 77.4-----
2024-06-13 10:30 amWSW 10 12------ 77.0-----
2024-06-13 10:20 amWSW 16 18------ 76.5-----
2024-06-13 10:10 am W 12 14------ 76.3-----
2024-06-13 10:00 am W 11 14------ 75.7-----
2024-06-13 09:50 amWSW 11 13------ 75.4-----
2024-06-13 09:40 amWSW 14 18------ 75.4-----
2024-06-13 09:30 amWSW 15 18------ 75.0-----
2024-06-13 09:20 amWSW 14 17------ 74.5-----
2024-06-13 09:10 amWSW 13 17------ 74.3-----
2024-06-13 09:00 amWSW 16 19------ 74.5-----
2024-06-13 08:50 amWSW 14 18------ 73.8-----
2024-06-13 08:40 amWSW 14 17------ 73.2-----
2024-06-13 08:30 amWSW 10 11------ 72.1-----
2024-06-13 08:20 amWSW 10 12------ 71.1-----
2024-06-13 08:10 amWSW 7 8------ 69.1-----
2024-06-13 08:00 amSSW 2 3------ 68.7-----
2024-06-13 07:50 am SW 4 4------ 70.3-----
2024-06-13 07:40 am SW 5 5------ 70.7-----
2024-06-13 07:30 amWSW 5 6------ 69.4-----
2024-06-13 07:20 amWSW 7 7------ 69.1-----
2024-06-13 07:10 am SW 8 9------ 68.7-----
2024-06-13 07:00 am SW 8 9------ 68.4-----
2024-06-13 06:50 am SW 7 9------ 67.8-----
2024-06-13 06:40 am W 2 3------ 66.7-----
2024-06-13 06:30 am W 4 5------ 66.2-----
2024-06-13 06:20 am S 9 10------ 66.7-----
2024-06-13 06:10 am S 10 11------ 65.8-----
2024-06-13 06:00 am S 10 10------ 66.4-----
2024-06-13 05:50 am S 10 10------ 67.1-----
2024-06-13 05:40 am S 7 7------ 67.6-----
2024-06-13 05:30 amSSW 7 7------ 66.7-----
2024-06-13 05:20 amSSW 7 7------ 68.7-----
2024-06-13 05:10 am S 8 8------ 67.8-----
2024-06-13 05:00 am SW 6 6------ 68.9-----
2024-06-13 04:50 am SW 4 4------ 69.1-----
2024-06-13 04:40 amWSW 4 4------ 69.4-----
2024-06-13 04:30 amWSW 4 4------ 70.0-----
2024-06-13 04:20 am W 4 4------ 70.3-----
2024-06-13 04:10 amWNW 5 7------ 70.7-----
2024-06-13 04:00 amNNW 10 13------ 71.1-----
2024-06-13 03:50 am N 13 16------ 70.3-----
2024-06-13 03:40 amWSW 7 8------ 69.8-----
2024-06-13 03:30 amWSW 6 7------ 69.1-----
2024-06-13 03:20 amWSW 6 6------ 69.3-----
2024-06-13 03:10 amWSW 6 8------ 69.3-----
2024-06-13 03:00 amWSW 7 8------ 69.1-----
2024-06-13 02:50 amWSW 6 7------ 69.3-----
2024-06-13 02:40 amWSW 7 8------ 69.1-----
2024-06-13 02:30 amWSW 6 7------ 69.1-----
2024-06-13 02:20 amWSW 6 8------ 67.3-----
2024-06-13 02:10 am SW 1 2------ 65.8-----
2024-06-13 02:00 amSSW 1 2------ 65.5-----
2024-06-13 01:50 am S 2 2------ 65.1-----
2024-06-13 01:40 amSSE 2 2------ 65.3-----
2024-06-13 01:30 am S 2 2------ 65.8-----
2024-06-13 01:20 am S 2 2------ 65.3-----
2024-06-13 01:10 amSSW 2 3------ 64.4-----
2024-06-13 01:00 am SW 1 2------ 64.4-----
2024-06-13 12:50 amSSW 2 2------ 64.8-----
2024-06-13 12:40 am S 2 2------ 64.9-----
2024-06-13 12:30 am SW 2 2------ 64.8-----
2024-06-13 12:20 amWSW 3 3------ 64.4-----
2024-06-13 12:10 amSSW 6 6------ 64.2-----
2024-06-13 12:00 amSSW 5 5------ 64.0-----
2024-06-12 11:50 pm S 4 5------ 64.2-----
2024-06-12 11:40 pm S 2 3------ 64.6-----
2024-06-12 11:30 pmESE 1 2------ 64.8-----
2024-06-12 11:20 pm S 2 2------ 64.8-----
2024-06-12 11:10 pmSSW 1 1------ 65.1-----
2024-06-12 11:00 pm SW 2 3------ 65.7-----
2024-06-12 10:50 pmWSW 1 1------ 66.2-----
2024-06-12 10:40 pmWSW 2 3------ 66.4-----
2024-06-12 10:30 pm W 2 2------ 66.4-----
2024-06-12 10:20 pm W 2 2------ 65.1-----
2024-06-12 10:10 pmWSW 1 2------ 64.6-----
2024-06-12 10:00 pm SW 3 3------ 64.4-----
2024-06-12 09:50 pm S 4 4------ 64.0-----
2024-06-12 09:40 pm S 2 2------ 64.2-----
2024-06-12 09:30 pmSSW 3 3------ 64.2-----
2024-06-12 09:20 pm SW 2 3------ 64.2-----
2024-06-12 09:10 pmWSW 4 4------ 64.2-----
2024-06-12 09:00 pm S 2 2------ 64.4-----
2024-06-12 08:50 pm SW 2 2------ 66.0-----
2024-06-12 08:40 pm- 0 1------ 65.3-----
2024-06-12 08:30 pm- 0 0------ 64.6-----
2024-06-12 08:20 pmESE 2 2------ 64.0-----
2024-06-12 08:10 pm E 2 2------ 63.1-----
2024-06-12 08:00 pmESE 4 5------ 63.3-----
2024-06-12 07:50 pmESE 5 6------ 63.3-----